sensor_id;sensor_type;location;lat;lon;timestamp;pressure;altitude;pressure_sealevel;temperature;humidity
18985;BME280;9626;52.552;13.436;2024-03-07T00:00:06;102054.69;;;6.28;100.00
18985;BME280;9626;52.552;13.436;2024-03-07T00:02:47;102044.13;;;6.26;100.00
18985;BME280;9626;52.552;13.436;2024-03-07T00:05:14;102052.94;;;6.29;100.00
18985;BME280;9626;52.552;13.436;2024-03-07T00:07:42;102052.03;;;6.28;100.00
18985;BME280;9626;52.552;13.436;2024-03-07T00:10:09;102055.59;;;6.30;100.00
18985;BME280;9626;52.552;13.436;2024-03-07T00:12:39;102048.63;;;6.32;100.00
18985;BME280;9626;52.552;13.436;2024-03-07T00:15:07;102057.44;;;6.34;100.00
18985;BME280;9626;52.552;13.436;2024-03-07T00:17:34;102048.66;;;6.35;100.00
18985;BME280;9626;52.552;13.436;2024-03-07T00:20:01;102046.91;;;6.33;100.00
18985;BME280;9626;52.552;13.436;2024-03-07T00:22:31;102053.09;;;6.36;100.00
18985;BME280;9626;52.552;13.436;2024-03-07T00:24:57;102053.09;;;6.36;100.00
18985;BME280;9626;52.552;13.436;2024-03-07T00:27:23;102050.53;;;6.39;100.00
18985;BME280;9626;52.552;13.436;2024-03-07T00:29:49;102049.56;;;6.36;100.00
18985;BME280;9626;52.552;13.436;2024-03-07T00:32:22;102046.97;;;6.37;100.00
18985;BME280;9626;52.552;13.436;2024-03-07T00:34:49;102056.63;;;6.37;100.00
18985;BME280;9626;52.552;13.436;2024-03-07T00:37:16;102060.06;;;6.34;100.00
18985;BME280;9626;52.552;13.436;2024-03-07T00:39:43;102053.94;;;6.35;100.00
18985;BME280;9626;52.552;13.436;2024-03-07T00:42:09;102053.09;;;6.38;100.00
18985;BME280;9626;52.552;13.436;2024-03-07T00:44:36;102042.50;;;6.33;100.00
18985;BME280;9626;52.552;13.436;2024-03-07T00:47:02;102045.13;;;6.33;100.00
18985;BME280;9626;52.552;13.436;2024-03-07T00:49:29;102046.00;;;6.34;100.00
18985;BME280;9626;52.552;13.436;2024-03-07T00:51:57;102043.34;;;6.32;100.00
18985;BME280;9626;52.552;13.436;2024-03-07T00:54:23;102040.72;;;6.32;100.00
18985;BME280;9626;52.552;13.436;2024-03-07T00:56:49;102037.25;;;6.33;100.00
18985;BME280;9626;52.552;13.436;2024-03-07T00:59:16;102045.13;;;6.33;100.00
18985;BME280;9626;52.552;13.436;2024-03-07T01:01:42;102042.47;;;6.32;100.00
18985;BME280;9626;52.552;13.436;2024-03-07T01:04:10;102044.31;;;6.36;100.00
18985;BME280;9626;52.552;13.436;2024-03-07T01:06:38;102039.81;;;6.30;100.00
18985;BME280;9626;52.552;13.436;2024-03-07T01:09:06;102038.09;;;6.32;100.00
18985;BME280;9626;52.552;13.436;2024-03-07T01:11:43;102042.34;;;6.25;100.00
18985;BME280;9626;52.552;13.436;2024-03-07T01:14:11;102033.75;;;6.33;100.00
18985;BME280;9626;52.552;13.436;2024-03-07T01:16:37;102036.25;;;6.28;100.00
18985;BME280;9626;52.552;13.436;2024-03-07T01:19:03;102038.69;;;6.19;100.00
18985;BME280;9626;52.552;13.436;2024-03-07T01:21:34;102041.47;;;6.25;100.00
18985;BME280;9626;52.552;13.436;2024-03-07T01:24:01;102041.47;;;6.25;100.00
18985;BME280;9626;52.552;13.436;2024-03-07T01:26:28;102043.34;;;6.32;100.00
18985;BME280;9626;52.552;13.436;2024-03-07T01:28:57;102037.09;;;6.27;100.00
18985;BME280;9626;52.552;13.436;2024-03-07T01:31:24;102035.19;;;6.18;100.00
18985;BME280;9626;52.552;13.436;2024-03-07T01:33:51;102040.63;;;6.26;100.00
18985;BME280;9626;52.552;13.436;2024-03-07T01:36:18;102039.69;;;6.24;100.00
18985;BME280;9626;52.552;13.436;2024-03-07T01:38:45;102037.84;;;6.20;100.00
18985;BME280;9626;52.552;13.436;2024-03-07T01:41:11;102039.81;;;6.30;100.00
18985;BME280;9626;52.552;13.436;2024-03-07T01:43:37;102039.69;;;6.24;100.00
18985;BME280;9626;52.552;13.436;2024-03-07T01:46:03;102030.78;;;6.17;100.00
18985;BME280;9626;52.552;13.436;2024-03-07T01:48:30;102038.56;;;6.11;100.00
18985;BME280;9626;52.552;13.436;2024-03-07T01:50:58;102034.13;;;6.08;100.00
18985;BME280;9626;52.552;13.436;2024-03-07T01:53:26;102038.41;;;6.03;100.00
18985;BME280;9626;52.552;13.436;2024-03-07T01:55:53;102036.38;;;5.93;100.00
18985;BME280;9626;52.552;13.436;2024-03-07T01:58:23;102035.31;;;5.83;100.00
18985;BME280;9626;52.552;13.436;2024-03-07T02:00:49;102044.09;;;5.82;100.00
18985;BME280;9626;52.552;13.436;2024-03-07T02:03:16;102037.13;;;5.86;100.00
18985;BME280;9626;52.552;13.436;2024-03-07T02:05:43;102039.66;;;5.81;100.00
18985;BME280;9626;52.552;13.436;2024-03-07T02:08:10;102036.06;;;5.78;100.00
18985;BME280;9626;52.552;13.436;2024-03-07T02:10:37;102028.94;;;5.72;100.00
18985;BME280;9626;52.552;13.436;2024-03-07T02:13:04;102024.72;;;5.79;100.00
18985;BME280;9626;52.552;13.436;2024-03-07T02:15:30;102029.81;;;5.72;100.00
18985;BME280;9626;52.552;13.436;2024-03-07T02:17:56;102024.56;;;5.72;100.00
18985;BME280;9626;52.552;13.436;2024-03-07T02:20:23;102025.28;;;5.65;100.00
18985;BME280;9626;52.552;13.436;2024-03-07T02:22:49;102024.47;;;5.68;100.00
18985;BME280;9626;52.552;13.436;2024-03-07T02:25:16;102025.88;;;5.52;100.00
18985;BME280;9626;52.552;13.436;2024-03-07T02:27:42;102020.50;;;5.46;100.00
18985;BME280;9626;52.552;13.436;2024-03-07T02:30:11;102017.63;;;5.35;100.00
18985;BME280;9626;52.552;13.436;2024-03-07T02:32:38;102022.06;;;5.37;100.00
18985;BME280;9626;52.552;13.436;2024-03-07T02:35:05;102014.88;;;5.30;100.00
18985;BME280;9626;52.552;13.436;2024-03-07T02:37:31;102016.59;;;5.28;100.00
18985;BME280;9626;52.552;13.436;2024-03-07T02:39:57;102010.38;;;5.24;100.00
18985;BME280;9626;52.552;13.436;2024-03-07T02:42:23;102010.25;;;5.18;100.00
18985;BME280;9626;52.552;13.436;2024-03-07T02:44:49;102010.81;;;5.06;100.00
18985;BME280;9626;52.552;13.436;2024-03-07T02:47:15;102004.53;;;5.00;100.00
18985;BME280;9626;52.552;13.436;2024-03-07T02:49:41;102005.34;;;4.97;100.00
18985;BME280;9626;52.552;13.436;2024-03-07T02:52:07;102009.47;;;4.87;100.00
18985;BME280;9626;52.552;13.436;2024-03-07T02:54:34;102007.53;;;4.79;100.00
18985;BME280;9626;52.552;13.436;2024-03-07T02:57:01;102007.63;;;4.83;100.00
18985;BME280;9626;52.552;13.436;2024-03-07T02:59:27;102011.69;;;4.70;100.00
18985;BME280;9626;52.552;13.436;2024-03-07T03:01:53;102013.25;;;4.62;100.00
18985;BME280;9626;52.552;13.436;2024-03-07T03:04:18;102011.44;;;4.61;100.00
18985;BME280;9626;52.552;13.436;2024-03-07T03:06:45;102016.84;;;4.67;100.00
18985;BME280;9626;52.552;13.436;2024-03-07T03:09:12;102011.34;;;4.58;100.00
18985;BME280;9626;52.552;13.436;2024-03-07T03:11:45;102014.84;;;4.57;100.00
18985;BME280;9626;52.552;13.436;2024-03-07T03:14:12;102011.13;;;4.49;100.00
18985;BME280;9626;52.552;13.436;2024-03-07T03:16:42;102013.00;;;4.53;100.00
18985;BME280;9626;52.552;13.436;2024-03-07T03:19:11;102014.63;;;4.49;100.00
18985;BME280;9626;52.552;13.436;2024-03-07T03:21:37;102016.34;;;4.47;100.00
18985;BME280;9626;52.552;13.436;2024-03-07T03:24:04;102022.34;;;4.43;100.00
18985;BME280;9626;52.552;13.436;2024-03-07T03:26:30;102026.53;;;4.36;100.00
18985;BME280;9626;52.552;13.436;2024-03-07T03:28:57;102024.56;;;4.29;100.00
18985;BME280;9626;52.552;13.436;2024-03-07T03:31:24;102017.66;;;4.31;100.00
18985;BME280;9626;52.552;13.436;2024-03-07T03:33:50;102023.66;;;4.27;100.00
18985;BME280;9626;52.552;13.436;2024-03-07T03:36:16;102024.50;;;4.26;100.00
18985;BME280;9626;52.552;13.436;2024-03-07T03:38:42;102019.25;;;4.26;100.00
18985;BME280;9626;52.552;13.436;2024-03-07T03:41:08;102027.84;;;4.20;100.00
18985;BME280;9626;52.552;13.436;2024-03-07T03:43:34;102031.91;;;4.09;100.00
18985;BME280;9626;52.552;13.436;2024-03-07T03:46:00;102024.16;;;4.14;100.00
18985;BME280;9626;52.552;13.436;2024-03-07T03:48:28;102024.97;;;4.11;100.00
18985;BME280;9626;52.552;13.436;2024-03-07T03:50:54;102027.47;;;4.06;100.00
18985;BME280;9626;52.552;13.436;2024-03-07T03:53:20;102032.59;;;4.03;100.00
18985;BME280;9626;52.552;13.436;2024-03-07T03:55:46;102034.56;;;4.11;100.00
18985;BME280;9626;52.552;13.436;2024-03-07T03:58:12;102032.66;;;4.05;100.00
18985;BME280;9626;52.552;13.436;2024-03-07T04:00:39;102023.78;;;4.00;100.00
18985;BME280;9626;52.552;13.436;2024-03-07T04:03:05;102035.84;;;3.95;100.00
18985;BME280;9626;52.552;13.436;2024-03-07T04:05:31;102035.03;;;3.96;100.00
18985;BME280;9626;52.552;13.436;2024-03-07T04:07:57;102038.66;;;4.01;100.00
18985;BME280;9626;52.552;13.436;2024-03-07T04:10:24;102037.59;;;3.94;100.00
18985;BME280;9626;52.552;13.436;2024-03-07T04:12:50;102042.72;;;3.91;100.00
18985;BME280;9626;52.552;13.436;2024-03-07T04:15:16;102038.56;;;3.98;100.00
18985;BME280;9626;52.552;13.436;2024-03-07T04:17:42;102039.34;;;3.95;100.00
18985;BME280;9626;52.552;13.436;2024-03-07T04:20:10;102038.16;;;3.84;100.00
18985;BME280;9626;52.552;13.436;2024-03-07T04:22:37;102042.47;;;3.82;100.00
18985;BME280;9626;52.552;13.436;2024-03-07T04:25:07;102035.53;;;3.84;100.00
18985;BME280;9626;52.552;13.436;2024-03-07T04:27:34;102033.88;;;3.86;100.00
18985;BME280;9626;52.552;13.436;2024-03-07T04:30:03;102035.81;;;3.93;100.00
18985;BME280;9626;52.552;13.436;2024-03-07T04:32:30;102038.16;;;3.84;100.00
18985;BME280;9626;52.552;13.436;2024-03-07T04:34:56;102037.59;;;3.94;100.00
18985;BME280;9626;52.552;13.436;2024-03-07T04:37:23;102036.13;;;4.04;100.00
18985;BME280;9626;52.552;13.436;2024-03-07T04:39:49;102040.31;;;3.97;100.00
18985;BME280;9626;52.552;13.436;2024-03-07T04:42:15;102040.50;;;3.75;100.00
18985;BME280;9626;52.552;13.436;2024-03-07T04:44:41;102042.94;;;3.68;100.00
18985;BME280;9626;52.552;13.436;2024-03-07T04:47:07;102047.31;;;3.69;100.00
18985;BME280;9626;52.552;13.436;2024-03-07T04:49:34;102045.56;;;3.68;100.00
18985;BME280;9626;52.552;13.436;2024-03-07T04:52:02;102043.03;;;3.71;100.00
18985;BME280;9626;52.552;13.436;2024-03-07T04:54:29;102041.38;;;3.46;100.00
18985;BME280;9626;52.552;13.436;2024-03-07T04:56:57;102044.81;;;3.44;100.00
18985;BME280;9626;52.552;13.436;2024-03-07T04:59:23;102041.25;;;3.42;100.00
18985;BME280;9626;52.552;13.436;2024-03-07T05:01:50;102046.69;;;3.48;100.00
18985;BME280;9626;52.552;13.436;2024-03-07T05:04:17;102042.28;;;3.47;100.00
18985;BME280;9626;52.552;13.436;2024-03-07T05:06:43;102053.22;;;3.33;100.00
18985;BME280;9626;52.552;13.436;2024-03-07T05:09:10;102055.81;;;3.33;100.00
18985;BME280;9626;52.552;13.436;2024-03-07T05:11:49;102060.03;;;3.28;100.00
18985;BME280;9626;52.552;13.436;2024-03-07T05:14:17;102055.00;;;3.34;100.00
18985;BME280;9626;52.552;13.436;2024-03-07T05:16:43;102067.31;;;3.37;100.00
18985;BME280;9626;52.552;13.436;2024-03-07T05:19:09;102060.31;;;3.37;100.00
18985;BME280;9626;52.552;13.436;2024-03-07T05:21:35;102064.56;;;3.34;100.00
18985;BME280;9626;52.552;13.436;2024-03-07T05:24:07;102071.28;;;3.26;100.00
18985;BME280;9626;52.552;13.436;2024-03-07T05:26:34;102064.13;;;3.20;100.00
18985;BME280;9626;52.552;13.436;2024-03-07T05:29:04;102066.09;;;3.27;100.00
18985;BME280;9626;52.552;13.436;2024-03-07T05:31:31;102072.72;;;3.16;100.00
18985;BME280;9626;52.552;13.436;2024-03-07T05:34:02;102070.09;;;3.16;100.00
18985;BME280;9626;52.552;13.436;2024-03-07T05:36:35;102072.53;;;3.10;100.00
18985;BME280;9626;52.552;13.436;2024-03-07T05:39:02;102074.19;;;3.08;100.00
18985;BME280;9626;52.552;13.436;2024-03-07T05:41:40;102077.53;;;3.03;100.00
18985;BME280;9626;52.552;13.436;2024-03-07T05:44:06;102078.38;;;3.02;100.00
18985;BME280;9626;52.552;13.436;2024-03-07T05:46:36;102088.28;;;3.11;100.00
18985;BME280;9626;52.552;13.436;2024-03-07T05:49:03;102082.88;;;3.07;100.00
18985;BME280;9626;52.552;13.436;2024-03-07T05:51:29;102084.56;;;3.04;100.00
18985;BME280;9626;52.552;13.436;2024-03-07T05:53:55;102086.34;;;3.06;100.00
18985;BME280;9626;52.552;13.436;2024-03-07T05:56:22;102089.75;;;3.03;100.00
18985;BME280;9626;52.552;13.436;2024-03-07T05:58:48;102086.97;;;2.98;100.00
18985;BME280;9626;52.552;13.436;2024-03-07T06:01:14;102084.88;;;2.88;100.00
18985;BME280;9626;52.552;13.436;2024-03-07T06:03:40;102086.00;;;2.95;100.00
18985;BME280;9626;52.552;13.436;2024-03-07T06:06:06;102092.50;;;3.08;100.00
18985;BME280;9626;52.552;13.436;2024-03-07T06:08:37;102097.56;;;3.01;100.00
18985;BME280;9626;52.552;13.436;2024-03-07T06:11:04;102098.44;;;3.02;100.00
18985;BME280;9626;52.552;13.436;2024-03-07T06:13:31;102102.88;;;3.04;100.00
18985;BME280;9626;52.552;13.436;2024-03-07T06:15:57;102097.75;;;3.08;100.00
18985;BME280;9626;52.552;13.436;2024-03-07T06:18:23;102101.81;;;3.25;100.00
18985;BME280;9626;52.552;13.436;2024-03-07T06:20:49;102097.31;;;3.21;100.00
18985;BME280;9626;52.552;13.436;2024-03-07T06:23:15;102103.38;;;3.20;100.00
18985;BME280;9626;52.552;13.436;2024-03-07T06:25:42;102104.88;;;3.12;100.00
18985;BME280;9626;52.552;13.436;2024-03-07T06:28:20;102099.72;;;3.15;100.00
18985;BME280;9626;52.552;13.436;2024-03-07T06:30:46;102104.31;;;3.20;100.00
18985;BME280;9626;52.552;13.436;2024-03-07T06:33:13;102106.97;;;3.22;100.00
18985;BME280;9626;52.552;13.436;2024-03-07T06:35:40;102107.75;;;3.19;100.00
18985;BME280;9626;52.552;13.436;2024-03-07T06:38:10;102103.97;;;3.37;100.00
18985;BME280;9626;52.552;13.436;2024-03-07T06:40:38;102106.66;;;3.40;100.00
18985;BME280;9626;52.552;13.436;2024-03-07T06:43:07;102107.84;;;3.50;100.00
18985;BME280;9626;52.552;13.436;2024-03-07T06:45:33;102108.91;;;3.55;100.00
18985;BME280;9626;52.552;13.436;2024-03-07T06:48:00;102111.50;;;3.55;100.00
18985;BME280;9626;52.552;13.436;2024-03-07T06:50:26;102110.72;;;3.58;100.00
18985;BME280;9626;52.552;13.436;2024-03-07T06:52:54;102113.56;;;3.65;100.00
18985;BME280;9626;52.552;13.436;2024-03-07T06:55:21;102114.56;;;3.69;100.00
18985;BME280;9626;52.552;13.436;2024-03-07T06:57:47;102110.31;;;3.72;100.00
18985;BME280;9626;52.552;13.436;2024-03-07T07:00:15;102118.94;;;3.68;100.00
18985;BME280;9626;52.552;13.436;2024-03-07T07:02:47;102118.06;;;3.69;100.00
18985;BME280;9626;52.552;13.436;2024-03-07T07:05:14;102114.91;;;3.80;100.00
18985;BME280;9626;52.552;13.436;2024-03-07T07:07:44;102121.94;;;3.81;100.00
18985;BME280;9626;52.552;13.436;2024-03-07T07:10:11;102120.97;;;3.79;100.00
18985;BME280;9626;52.552;13.436;2024-03-07T07:12:45;102124.38;;;3.76;100.00
18985;BME280;9626;52.552;13.436;2024-03-07T07:15:12;102129.88;;;3.84;100.00
18985;BME280;9626;52.552;13.436;2024-03-07T07:17:39;102125.00;;;3.96;100.00
18985;BME280;9626;52.552;13.436;2024-03-07T07:20:05;102127.09;;;4.06;100.00
18985;BME280;9626;52.552;13.436;2024-03-07T07:22:38;102124.94;;;4.23;100.00
18985;BME280;9626;52.552;13.436;2024-03-07T07:25:05;102133.31;;;4.40;100.00
18985;BME280;9626;52.552;13.436;2024-03-07T07:27:44;102131.34;;;4.64;100.00
18985;BME280;9626;52.552;13.436;2024-03-07T07:30:11;102129.59;;;4.64;100.00
18985;BME280;9626;52.552;13.436;2024-03-07T07:32:39;102132.91;;;4.90;100.00
18985;BME280;9626;52.552;13.436;2024-03-07T07:35:06;102131.53;;;5.03;100.00
18985;BME280;9626;52.552;13.436;2024-03-07T07:37:40;102129.47;;;5.25;100.00
18985;BME280;9626;52.552;13.436;2024-03-07T07:40:08;102129.50;;;5.27;100.00
18985;BME280;9626;52.552;13.436;2024-03-07T07:42:35;102127.44;;;5.50;100.00
18985;BME280;9626;52.552;13.436;2024-03-07T07:45:06;102133.88;;;5.64;100.00
18985;BME280;9626;52.552;13.436;2024-03-07T07:47:32;102130.72;;;5.78;100.00
18985;BME280;9626;52.552;13.436;2024-03-07T07:49:58;102127.91;;;6.08;100.00
18985;BME280;9626;52.552;13.436;2024-03-07T07:52:24;102124.81;;;6.26;100.00
18985;BME280;9626;52.552;13.436;2024-03-07T07:54:50;102118.41;;;6.15;100.00
18985;BME280;9626;52.552;13.436;2024-03-07T07:57:16;102126.03;;;6.43;100.00
18985;BME280;9626;52.552;13.436;2024-03-07T07:59:42;102124.84;;;6.73;100.00
18985;BME280;9626;52.552;13.436;2024-03-07T08:02:08;102113.66;;;6.85;100.00
18985;BME280;9626;52.552;13.436;2024-03-07T08:04:34;102119.09;;;6.93;100.00
18985;BME280;9626;52.552;13.436;2024-03-07T08:07:00;102110.69;;;7.16;100.00
18985;BME280;9626;52.552;13.436;2024-03-07T08:09:26;102097.75;;;7.28;97.59
18985;BME280;9626;52.552;13.436;2024-03-07T08:11:52;102098.78;;;7.38;95.01
18985;BME280;9626;52.552;13.436;2024-03-07T08:14:18;102092.84;;;7.51;93.51
18985;BME280;9626;52.552;13.436;2024-03-07T08:16:48;102087.81;;;7.68;89.39
18985;BME280;9626;52.552;13.436;2024-03-07T08:19:14;102092.56;;;7.34;89.56
18985;BME280;9626;52.552;13.436;2024-03-07T08:21:41;102098.13;;;7.01;91.52
18985;BME280;9626;52.552;13.436;2024-03-07T08:24:07;102100.03;;;7.08;92.26
18985;BME280;9626;52.552;13.436;2024-03-07T08:26:36;102092.25;;;7.71;87.60
18985;BME280;9626;52.552;13.436;2024-03-07T08:29:03;102075.91;;;7.97;84.98
18985;BME280;9626;52.552;13.436;2024-03-07T08:31:28;102080.47;;;8.11;83.11
18985;BME280;9626;52.552;13.436;2024-03-07T08:33:54;102072.41;;;8.74;78.50
18985;BME280;9626;52.552;13.436;2024-03-07T08:36:20;102062.28;;;8.33;76.77
18985;BME280;9626;52.552;13.436;2024-03-07T08:38:48;102070.53;;;8.62;75.52
18985;BME280;9626;52.552;13.436;2024-03-07T08:41:14;102062.19;;;9.11;72.55
18985;BME280;9626;52.552;13.436;2024-03-07T08:43:40;102048.28;;;9.37;69.28
18985;BME280;9626;52.552;13.436;2024-03-07T08:46:06;102049.34;;;9.64;66.64
18985;BME280;9626;52.552;13.436;2024-03-07T08:48:32;102046.03;;;10.08;64.82
18985;BME280;9626;52.552;13.436;2024-03-07T08:50:58;102041.59;;;10.00;64.16
18985;BME280;9626;52.552;13.436;2024-03-07T08:53:24;102045.72;;;9.53;63.68
18985;BME280;9626;52.552;13.436;2024-03-07T08:55:50;102049.13;;;9.30;64.80
18985;BME280;9626;52.552;13.436;2024-03-07T08:58:16;102050.16;;;9.54;64.63
18985;BME280;9626;52.552;13.436;2024-03-07T09:00:42;102050.28;;;9.81;62.98
18985;BME280;9626;52.552;13.436;2024-03-07T09:03:10;102039.81;;;9.95;61.86
18985;BME280;9626;52.552;13.436;2024-03-07T09:05:36;102020.63;;;10.91;58.81
18985;BME280;9626;52.552;13.436;2024-03-07T09:08:04;102006.44;;;11.44;55.43
18985;BME280;9626;52.552;13.436;2024-03-07T09:10:30;101987.69;;;11.94;53.39
18985;BME280;9626;52.552;13.436;2024-03-07T09:12:56;101984.16;;;11.89;51.72
18985;BME280;9626;52.552;13.436;2024-03-07T09:15:22;101979.50;;;12.37;50.86
18985;BME280;9626;52.552;13.436;2024-03-07T09:17:49;101971.66;;;12.18;50.17
18985;BME280;9626;52.552;13.436;2024-03-07T09:20:15;101970.72;;;12.23;50.01
18985;BME280;9626;52.552;13.436;2024-03-07T09:22:44;101964.16;;;12.75;49.05
18985;BME280;9626;52.552;13.436;2024-03-07T09:25:11;101969.84;;;12.24;48.82
18985;BME280;9626;52.552;13.436;2024-03-07T09:27:42;101952.06;;;12.38;48.84
18985;BME280;9626;52.552;13.436;2024-03-07T09:30:10;101953.09;;;13.23;46.36
18985;BME280;9626;52.552;13.436;2024-03-07T09:32:44;101940.44;;;12.55;47.23
18985;BME280;9626;52.552;13.436;2024-03-07T09:35:11;101948.59;;;12.24;47.60
18985;BME280;9626;52.552;13.436;2024-03-07T09:37:41;101948.56;;;12.27;47.40
18985;BME280;9626;52.552;13.436;2024-03-07T09:40:09;101950.06;;;12.65;46.81
18985;BME280;9626;52.552;13.436;2024-03-07T09:42:42;101935.53;;;13.03;45.83
18985;BME280;9626;52.552;13.436;2024-03-07T09:45:12;101944.38;;;13.08;45.45
18985;BME280;9626;52.552;13.436;2024-03-07T09:47:39;101949.56;;;12.15;46.04
18985;BME280;9626;52.552;13.436;2024-03-07T09:50:05;101948.75;;;11.93;46.29
18985;BME280;9626;52.552;13.436;2024-03-07T09:52:34;101948.41;;;12.55;45.85
18985;BME280;9626;52.552;13.436;2024-03-07T09:55:01;101936.72;;;12.73;45.12
18985;BME280;9626;52.552;13.436;2024-03-07T09:57:30;101926.94;;;12.79;44.25
18985;BME280;9626;52.552;13.436;2024-03-07T10:00:00;101933.81;;;11.73;45.50
18985;BME280;9626;52.552;13.436;2024-03-07T10:02:31;101939.91;;;11.97;45.65
18985;BME280;9626;52.552;13.436;2024-03-07T10:04:58;101935.69;;;11.46;45.36
18985;BME280;9626;52.552;13.436;2024-03-07T10:07:25;101933.78;;;11.78;44.99
18985;BME280;9626;52.552;13.436;2024-03-07T10:09:52;101925.84;;;11.79;44.87
18985;BME280;9626;52.552;13.436;2024-03-07T10:12:21;101933.06;;;11.40;46.49
18985;BME280;9626;52.552;13.436;2024-03-07T10:14:49;101927.84;;;12.75;43.82
18985;BME280;9626;52.552;13.436;2024-03-07T10:17:17;101918.59;;;13.15;42.50
18985;BME280;9626;52.552;13.436;2024-03-07T10:19:47;101891.41;;;13.66;40.97
18985;BME280;9626;52.552;13.436;2024-03-07T10:22:14;101889.34;;;13.15;40.49
18985;BME280;9626;52.552;13.436;2024-03-07T10:24:49;101899.25;;;11.86;42.69
18985;BME280;9626;52.552;13.436;2024-03-07T10:27:20;101910.09;;;11.44;43.93
18985;BME280;9626;52.552;13.436;2024-03-07T10:29:47;101905.50;;;11.72;43.48
18985;BME280;9626;52.552;13.436;2024-03-07T10:32:19;101899.94;;;12.20;42.96
18985;BME280;9626;52.552;13.436;2024-03-07T10:34:45;101898.84;;;12.50;42.36
18985;BME280;9626;52.552;13.436;2024-03-07T10:37:15;101900.63;;;12.47;41.22
18985;BME280;9626;52.552;13.436;2024-03-07T10:39:46;101904.53;;;11.92;42.02
18985;BME280;9626;52.552;13.436;2024-03-07T10:42:13;101899.28;;;11.82;42.15
18985;BME280;9626;52.552;13.436;2024-03-07T10:44:48;101895.13;;;11.20;42.99
18985;BME280;9626;52.552;13.436;2024-03-07T10:47:19;101902.22;;;11.07;43.64
18985;BME280;9626;52.552;13.436;2024-03-07T10:50:09;101898.69;;;11.15;43.56
18985;BME280;9626;52.552;13.436;2024-03-07T10:55:40;101890.47;;;11.77;42.53
18985;BME280;9626;52.552;13.436;2024-03-07T10:58:20;101882.38;;;11.93;42.46
18985;BME280;9626;52.552;13.436;2024-03-07T11:00:52;101884.84;;;12.27;42.22
18985;BME280;9626;52.552;13.436;2024-03-07T11:03:22;101887.19;;;12.67;41.55
18985;BME280;9626;52.552;13.436;2024-03-07T11:05:49;101880.69;;;12.96;40.65
18985;BME280;9626;52.552;13.436;2024-03-07T11:08:16;101872.91;;;13.57;39.50
18985;BME280;9626;52.552;13.436;2024-03-07T11:10:43;101869.88;;;13.10;39.88
18985;BME280;9626;52.552;13.436;2024-03-07T11:13:13;101872.50;;;13.13;39.84
18985;BME280;9626;52.552;13.436;2024-03-07T11:15:43;101866.72;;;12.75;39.97
18985;BME280;9626;52.552;13.436;2024-03-07T11:18:10;101880.91;;;12.73;40.82
18985;BME280;9626;52.552;13.436;2024-03-07T11:20:39;101875.53;;;12.77;40.73
18985;BME280;9626;52.552;13.436;2024-03-07T11:26:27;101847.28;;;14.10;38.93
18985;BME280;9626;52.552;13.436;2024-03-07T11:28:45;101847.38;;;13.40;39.38
18985;BME280;9626;52.552;13.436;2024-03-07T11:31:14;101849.50;;;13.80;39.61
18985;BME280;9626;52.552;13.436;2024-03-07T11:33:41;101851.72;;;14.08;39.34
18985;BME280;9626;52.552;13.436;2024-03-07T11:36:08;101840.19;;;15.09;37.82
18985;BME280;9626;52.552;13.436;2024-03-07T11:38:44;101828.34;;;15.23;36.81
18985;BME280;9626;52.552;13.436;2024-03-07T11:41:10;101826.38;;;15.32;36.41
18985;BME280;9626;52.552;13.436;2024-03-07T11:43:40;101832.19;;;15.51;36.14
18985;BME280;9626;52.552;13.436;2024-03-07T11:46:07;101822.38;;;15.11;36.19
18985;BME280;9626;52.552;13.436;2024-03-07T11:48:41;101819.91;;;14.02;37.69
18985;BME280;9626;52.552;13.436;2024-03-07T11:51:13;101833.16;;;15.05;36.80
18985;BME280;9626;52.552;13.436;2024-03-07T11:53:39;101818.34;;;15.34;35.85
18985;BME280;9626;52.552;13.436;2024-03-07T11:56:07;101848.84;;;14.77;36.58
18985;BME280;9626;52.552;13.436;2024-03-07T11:58:38;101891.78;;;13.32;39.26
18985;BME280;9626;52.552;13.436;2024-03-07T12:01:07;101889.72;;;12.79;40.05
18985;BME280;9626;52.552;13.436;2024-03-07T12:03:39;101890.81;;;12.57;41.03
18985;BME280;9626;52.552;13.436;2024-03-07T12:06:05;101895.72;;;11.87;42.20
18985;BME280;9626;52.552;13.436;2024-03-07T12:08:31;101887.56;;;12.21;41.81
18985;BME280;9626;52.552;13.436;2024-03-07T12:10:57;101884.56;;;13.46;40.30
18985;BME280;9626;52.552;13.436;2024-03-07T12:13:25;101877.03;;;13.06;40.21
18985;BME280;9626;52.552;13.436;2024-03-07T12:15:52;101879.38;;;12.47;41.34
18985;BME280;9626;52.552;13.436;2024-03-07T12:18:19;101882.91;;;12.50;41.86
18985;BME280;9626;52.552;13.436;2024-03-07T12:20:47;101878.34;;;12.63;41.09
18985;BME280;9626;52.552;13.436;2024-03-07T12:23:17;101865.91;;;13.49;39.95
18985;BME280;9626;52.552;13.436;2024-03-07T12:25:45;101857.38;;;14.94;37.84
18985;BME280;9626;52.552;13.436;2024-03-07T12:28:12;101857.81;;;15.18;36.90
18985;BME280;9626;52.552;13.436;2024-03-07T12:33:12;101872.34;;;13.97;37.30
18985;BME280;9626;52.552;13.436;2024-03-07T12:35:47;101864.72;;;14.30;37.39
18985;BME280;9626;52.552;13.436;2024-03-07T12:38:15;101893.91;;;14.91;36.34
18985;BME280;9626;52.552;13.436;2024-03-07T12:40:43;101906.66;;;14.73;36.31
18985;BME280;9626;52.552;13.436;2024-03-07T12:43:19;101913.00;;;14.66;35.97
18985;BME280;9626;52.552;13.436;2024-03-07T12:45:49;101916.94;;;14.95;35.98
18985;BME280;9626;52.552;13.436;2024-03-07T12:48:16;101930.03;;;15.52;33.97
18985;BME280;9626;52.552;13.436;2024-03-07T12:50:45;101925.38;;;14.70;34.48
18985;BME280;9626;52.552;13.436;2024-03-07T12:53:11;101933.38;;;14.70;35.22
18985;BME280;9626;52.552;13.436;2024-03-07T12:55:41;101923.94;;;15.46;34.64
18985;BME280;9626;52.552;13.436;2024-03-07T12:58:10;101933.16;;;15.73;34.26
18985;BME280;9626;52.552;13.436;2024-03-07T13:00:42;101932.22;;;15.32;34.86